sensor_id;sensor_type;location;lat;lon;timestamp;temperature;humidity
5960;DHT22;3006;50.956;7.002;2023-02-28T00:00:41;2.70;99.90
5960;DHT22;3006;50.956;7.002;2023-02-28T00:03:09;2.70;99.90
5960;DHT22;3006;50.956;7.002;2023-02-28T00:05:37;2.70;99.90
5960;DHT22;3006;50.956;7.002;2023-02-28T00:08:05;2.70;99.90
5960;DHT22;3006;50.956;7.002;2023-02-28T00:10:35;2.70;99.90
5960;DHT22;3006;50.956;7.002;2023-02-28T00:13:05;2.70;99.90
5960;DHT22;3006;50.956;7.002;2023-02-28T00:15:33;2.70;99.90
5960;DHT22;3006;50.956;7.002;2023-02-28T00:18:02;2.70;99.90
5960;DHT22;3006;50.956;7.002;2023-02-28T00:20:30;2.60;99.90
5960;DHT22;3006;50.956;7.002;2023-02-28T00:22:58;2.70;99.90
5960;DHT22;3006;50.956;7.002;2023-02-28T00:25:26;2.60;99.90
5960;DHT22;3006;50.956;7.002;2023-02-28T00:27:56;2.50;99.90
5960;DHT22;3006;50.956;7.002;2023-02-28T00:30:25;2.50;99.90
5960;DHT22;3006;50.956;7.002;2023-02-28T00:32:53;2.50;99.90
5960;DHT22;3006;50.956;7.002;2023-02-28T00:35:21;2.50;99.90
5960;DHT22;3006;50.956;7.002;2023-02-28T00:37:49;2.40;99.90
5960;DHT22;3006;50.956;7.002;2023-02-28T00:40:17;2.40;99.90
5960;DHT22;3006;50.956;7.002;2023-02-28T00:42:46;2.40;99.90
5960;DHT22;3006;50.956;7.002;2023-02-28T00:45:15;2.40;99.90
5960;DHT22;3006;50.956;7.002;2023-02-28T00:47:43;2.40;99.90
5960;DHT22;3006;50.956;7.002;2023-02-28T00:50:13;2.40;99.90
5960;DHT22;3006;50.956;7.002;2023-02-28T00:52:41;2.40;99.90
5960;DHT22;3006;50.956;7.002;2023-02-28T00:55:09;2.40;99.90
5960;DHT22;3006;50.956;7.002;2023-02-28T00:57:37;2.40;99.90
5960;DHT22;3006;50.956;7.002;2023-02-28T01:00:08;2.40;99.90
5960;DHT22;3006;50.956;7.002;2023-02-28T01:02:37;2.40;99.90
5960;DHT22;3006;50.956;7.002;2023-02-28T01:05:06;2.40;99.90
5960;DHT22;3006;50.956;7.002;2023-02-28T01:07:34;2.40;99.90
5960;DHT22;3006;50.956;7.002;2023-02-28T01:10:02;2.40;99.90
5960;DHT22;3006;50.956;7.002;2023-02-28T01:12:30;2.40;99.90
5960;DHT22;3006;50.956;7.002;2023-02-28T01:14:58;2.40;99.90
5960;DHT22;3006;50.956;7.002;2023-02-28T01:17:26;2.40;99.90
5960;DHT22;3006;50.956;7.002;2023-02-28T01:19:56;2.40;99.90
5960;DHT22;3006;50.956;7.002;2023-02-28T01:22:24;2.30;99.90
5960;DHT22;3006;50.956;7.002;2023-02-28T01:24:52;2.30;99.90
5960;DHT22;3006;50.956;7.002;2023-02-28T01:27:21;2.40;99.90
5960;DHT22;3006;50.956;7.002;2023-02-28T01:29:50;2.40;99.90
5960;DHT22;3006;50.956;7.002;2023-02-28T01:32:18;2.30;99.90
5960;DHT22;3006;50.956;7.002;2023-02-28T01:34:46;2.30;99.90
5960;DHT22;3006;50.956;7.002;2023-02-28T01:37:16;2.30;99.90
5960;DHT22;3006;50.956;7.002;2023-02-28T01:39:44;2.30;99.90
5960;DHT22;3006;50.956;7.002;2023-02-28T01:42:12;2.30;99.90
5960;DHT22;3006;50.956;7.002;2023-02-28T01:45:04;2.30;99.90
5960;DHT22;3006;50.956;7.002;2023-02-28T01:47:38;2.30;99.90
5960;DHT22;3006;50.956;7.002;2023-02-28T01:50:12;2.30;99.90
5960;DHT22;3006;50.956;7.002;2023-02-28T01:52:43;2.30;99.90
5960;DHT22;3006;50.956;7.002;2023-02-28T01:55:12;2.30;99.90
5960;DHT22;3006;50.956;7.002;2023-02-28T01:57:45;2.20;99.90
5960;DHT22;3006;50.956;7.002;2023-02-28T02:00:16;2.20;99.90
5960;DHT22;3006;50.956;7.002;2023-02-28T02:02:48;2.20;99.90
5960;DHT22;3006;50.956;7.002;2023-02-28T02:05:20;2.20;99.90
5960;DHT22;3006;50.956;7.002;2023-02-28T02:07:53;2.20;99.90
5960;DHT22;3006;50.956;7.002;2023-02-28T02:10:27;2.20;99.90
5960;DHT22;3006;50.956;7.002;2023-02-28T02:13:14;2.10;99.90
5960;DHT22;3006;50.956;7.002;2023-02-28T02:15:54;2.20;99.90
5960;DHT22;3006;50.956;7.002;2023-02-28T02:18:30;2.20;99.90
5960;DHT22;3006;50.956;7.002;2023-02-28T02:24:24;2.20;99.90
5960;DHT22;3006;50.956;7.002;2023-02-28T02:27:09;2.20;99.90
5960;DHT22;3006;50.956;7.002;2023-02-28T02:35:34;2.20;99.90
5960;DHT22;3006;50.956;7.002;2023-02-28T02:38:09;2.10;99.90
5960;DHT22;3006;50.956;7.002;2023-02-28T02:40:44;2.10;99.90
5960;DHT22;3006;50.956;7.002;2023-02-28T02:43:16;2.10;99.90
5960;DHT22;3006;50.956;7.002;2023-02-28T02:45:47;2.10;99.90
5960;DHT22;3006;50.956;7.002;2023-02-28T02:48:19;2.10;99.90
5960;DHT22;3006;50.956;7.002;2023-02-28T02:50:55;2.10;99.90
5960;DHT22;3006;50.956;7.002;2023-02-28T02:53:27;2.10;99.90
5960;DHT22;3006;50.956;7.002;2023-02-28T02:55:59;2.10;99.90
5960;DHT22;3006;50.956;7.002;2023-02-28T02:58:40;2.10;99.90
5960;DHT22;3006;50.956;7.002;2023-02-28T03:01:12;2.10;99.90
5960;DHT22;3006;50.956;7.002;2023-02-28T03:03:43;2.00;99.90
5960;DHT22;3006;50.956;7.002;2023-02-28T03:06:15;2.10;99.90
5960;DHT22;3006;50.956;7.002;2023-02-28T03:08:43;2.00;99.90
5960;DHT22;3006;50.956;7.002;2023-02-28T03:11:13;2.00;99.90
5960;DHT22;3006;50.956;7.002;2023-02-28T03:13:54;2.00;99.90
5960;DHT22;3006;50.956;7.002;2023-02-28T03:16:42;2.00;99.90
5960;DHT22;3006;50.956;7.002;2023-02-28T03:19:33;2.00;99.90
5960;DHT22;3006;50.956;7.002;2023-02-28T03:22:14;2.00;99.90
5960;DHT22;3006;50.956;7.002;2023-02-28T03:24:47;2.00;99.90
5960;DHT22;3006;50.956;7.002;2023-02-28T03:27:23;2.00;99.90
5960;DHT22;3006;50.956;7.002;2023-02-28T03:29:57;2.00;99.90
5960;DHT22;3006;50.956;7.002;2023-02-28T03:32:29;2.00;99.90
5960;DHT22;3006;50.956;7.002;2023-02-28T03:35:02;2.10;99.90
5960;DHT22;3006;50.956;7.002;2023-02-28T03:37:35;2.00;99.90
5960;DHT22;3006;50.956;7.002;2023-02-28T03:40:08;2.00;99.90
5960;DHT22;3006;50.956;7.002;2023-02-28T03:42:41;2.00;99.90
5960;DHT22;3006;50.956;7.002;2023-02-28T03:45:13;2.00;99.90
5960;DHT22;3006;50.956;7.002;2023-02-28T03:47:48;2.00;99.90
5960;DHT22;3006;50.956;7.002;2023-02-28T03:50:20;2.10;99.90
5960;DHT22;3006;50.956;7.002;2023-02-28T03:52:54;2.00;99.90
5960;DHT22;3006;50.956;7.002;2023-02-28T03:55:32;1.90;99.90
5960;DHT22;3006;50.956;7.002;2023-02-28T03:58:08;2.00;99.90
5960;DHT22;3006;50.956;7.002;2023-02-28T04:00:40;1.90;99.90
5960;DHT22;3006;50.956;7.002;2023-02-28T04:03:11;1.90;99.90
5960;DHT22;3006;50.956;7.002;2023-02-28T04:05:47;1.90;99.90
5960;DHT22;3006;50.956;7.002;2023-02-28T04:08:19;1.90;99.90
5960;DHT22;3006;50.956;7.002;2023-02-28T04:10:51;1.90;99.90
5960;DHT22;3006;50.956;7.002;2023-02-28T04:13:21;1.90;99.90
5960;DHT22;3006;50.956;7.002;2023-02-28T04:15:50;1.90;99.90
5960;DHT22;3006;50.956;7.002;2023-02-28T04:18:18;1.80;99.90
5960;DHT22;3006;50.956;7.002;2023-02-28T04:20:46;1.80;99.90
5960;DHT22;3006;50.956;7.002;2023-02-28T04:23:14;1.80;99.90
5960;DHT22;3006;50.956;7.002;2023-02-28T04:25:44;1.80;99.90
5960;DHT22;3006;50.956;7.002;2023-02-28T04:28:12;1.70;99.90
5960;DHT22;3006;50.956;7.002;2023-02-28T04:30:40;1.70;99.90
5960;DHT22;3006;50.956;7.002;2023-02-28T04:33:08;1.70;99.90
5960;DHT22;3006;50.956;7.002;2023-02-28T04:35:37;1.70;99.90
5960;DHT22;3006;50.956;7.002;2023-02-28T04:38:05;1.70;99.90
5960;DHT22;3006;50.956;7.002;2023-02-28T04:40:33;1.70;99.90
5960;DHT22;3006;50.956;7.002;2023-02-28T04:43:02;1.70;99.90
5960;DHT22;3006;50.956;7.002;2023-02-28T04:45:31;1.70;99.90
5960;DHT22;3006;50.956;7.002;2023-02-28T04:48:01;1.70;99.90
5960;DHT22;3006;50.956;7.002;2023-02-28T04:50:29;1.70;99.90
5960;DHT22;3006;50.956;7.002;2023-02-28T04:52:57;1.60;99.90
5960;DHT22;3006;50.956;7.002;2023-02-28T04:55:25;1.60;99.90
5960;DHT22;3006;50.956;7.002;2023-02-28T04:57:53;1.60;99.90
5960;DHT22;3006;50.956;7.002;2023-02-28T05:00:23;1.60;99.90
5960;DHT22;3006;50.956;7.002;2023-02-28T05:02:52;1.60;99.90
5960;DHT22;3006;50.956;7.002;2023-02-28T05:05:20;1.60;99.90
5960;DHT22;3006;50.956;7.002;2023-02-28T05:07:48;1.60;99.90
5960;DHT22;3006;50.956;7.002;2023-02-28T05:10:17;1.60;99.90
5960;DHT22;3006;50.956;7.002;2023-02-28T05:12:45;1.60;99.90
5960;DHT22;3006;50.956;7.002;2023-02-28T05:15:14;1.60;99.90
5960;DHT22;3006;50.956;7.002;2023-02-28T05:17:44;1.60;99.90
5960;DHT22;3006;50.956;7.002;2023-02-28T05:20:12;1.60;99.90
5960;DHT22;3006;50.956;7.002;2023-02-28T05:22:43;1.60;99.90
5960;DHT22;3006;50.956;7.002;2023-02-28T05:25:13;1.50;99.90
5960;DHT22;3006;50.956;7.002;2023-02-28T05:27:43;1.50;99.90
5960;DHT22;3006;50.956;7.002;2023-02-28T05:30:12;1.50;99.90
5960;DHT22;3006;50.956;7.002;2023-02-28T05:32:41;1.50;99.90
5960;DHT22;3006;50.956;7.002;2023-02-28T05:35:11;1.50;99.90
5960;DHT22;3006;50.956;7.002;2023-02-28T05:37:39;1.50;99.90
5960;DHT22;3006;50.956;7.002;2023-02-28T05:40:08;1.50;99.90
5960;DHT22;3006;50.956;7.002;2023-02-28T05:42:38;1.50;99.90
5960;DHT22;3006;50.956;7.002;2023-02-28T05:45:07;1.50;99.90
5960;DHT22;3006;50.956;7.002;2023-02-28T05:47:35;1.50;99.90
5960;DHT22;3006;50.956;7.002;2023-02-28T05:50:05;1.50;99.90
5960;DHT22;3006;50.956;7.002;2023-02-28T05:52:34;1.50;99.90
5960;DHT22;3006;50.956;7.002;2023-02-28T05:55:03;1.50;99.90
5960;DHT22;3006;50.956;7.002;2023-02-28T05:57:32;1.50;99.90
5960;DHT22;3006;50.956;7.002;2023-02-28T06:00:00;1.60;99.90
5960;DHT22;3006;50.956;7.002;2023-02-28T06:02:38;1.60;99.90
5960;DHT22;3006;50.956;7.002;2023-02-28T06:05:13;1.60;99.90
5960;DHT22;3006;50.956;7.002;2023-02-28T06:07:43;1.60;99.90
5960;DHT22;3006;50.956;7.002;2023-02-28T06:10:12;1.60;99.90
5960;DHT22;3006;50.956;7.002;2023-02-28T06:12:41;1.60;99.90
5960;DHT22;3006;50.956;7.002;2023-02-28T06:15:12;1.60;99.90
5960;DHT22;3006;50.956;7.002;2023-02-28T06:17:41;1.60;99.90
5960;DHT22;3006;50.956;7.002;2023-02-28T06:20:11;1.60;99.90
5960;DHT22;3006;50.956;7.002;2023-02-28T06:22:39;1.60;99.90
5960;DHT22;3006;50.956;7.002;2023-02-28T06:25:11;1.50;99.90
5960;DHT22;3006;50.956;7.002;2023-02-28T06:27:39;1.50;99.90
5960;DHT22;3006;50.956;7.002;2023-02-28T06:30:09;1.50;99.90
5960;DHT22;3006;50.956;7.002;2023-02-28T06:32:37;1.50;99.90
5960;DHT22;3006;50.956;7.002;2023-02-28T06:35:06;1.60;99.90
5960;DHT22;3006;50.956;7.002;2023-02-28T06:37:34;1.50;99.90
5960;DHT22;3006;50.956;7.002;2023-02-28T06:40:03;1.50;99.90
5960;DHT22;3006;50.956;7.002;2023-02-28T06:42:34;1.60;99.90
5960;DHT22;3006;50.956;7.002;2023-02-28T06:45:04;1.60;99.90
5960;DHT22;3006;50.956;7.002;2023-02-28T06:47:36;1.60;99.90
5960;DHT22;3006;50.956;7.002;2023-02-28T06:50:06;1.60;99.90
5960;DHT22;3006;50.956;7.002;2023-02-28T06:52:35;1.60;99.90
5960;DHT22;3006;50.956;7.002;2023-02-28T06:55:05;1.50;99.90
5960;DHT22;3006;50.956;7.002;2023-02-28T06:57:35;1.60;99.90
5960;DHT22;3006;50.956;7.002;2023-02-28T07:00:05;1.60;99.90
5960;DHT22;3006;50.956;7.002;2023-02-28T07:02:35;1.60;99.90
5960;DHT22;3006;50.956;7.002;2023-02-28T07:05:04;1.60;99.90
5960;DHT22;3006;50.956;7.002;2023-02-28T07:07:32;1.60;99.90
5960;DHT22;3006;50.956;7.002;2023-02-28T07:10:02;1.70;99.90
5960;DHT22;3006;50.956;7.002;2023-02-28T07:12:31;1.70;99.90
5960;DHT22;3006;50.956;7.002;2023-02-28T07:15:00;1.70;99.90
5960;DHT22;3006;50.956;7.002;2023-02-28T07:17:28;1.70;99.90
5960;DHT22;3006;50.956;7.002;2023-02-28T07:19:58;1.80;99.90
5960;DHT22;3006;50.956;7.002;2023-02-28T07:22:27;1.80;99.90
5960;DHT22;3006;50.956;7.002;2023-02-28T07:24:55;1.80;99.90
5960;DHT22;3006;50.956;7.002;2023-02-28T07:27:24;1.90;99.90
5960;DHT22;3006;50.956;7.002;2023-02-28T07:29:53;1.90;99.90
5960;DHT22;3006;50.956;7.002;2023-02-28T07:32:22;1.90;99.90
5960;DHT22;3006;50.956;7.002;2023-02-28T07:34:51;2.00;99.90
5960;DHT22;3006;50.956;7.002;2023-02-28T07:37:20;2.00;99.90
5960;DHT22;3006;50.956;7.002;2023-02-28T07:39:48;2.00;99.90
5960;DHT22;3006;50.956;7.002;2023-02-28T07:42:18;2.10;99.90
5960;DHT22;3006;50.956;7.002;2023-02-28T07:44:46;2.10;99.90
5960;DHT22;3006;50.956;7.002;2023-02-28T07:47:14;2.10;99.90
5960;DHT22;3006;50.956;7.002;2023-02-28T07:49:45;2.20;99.90
5960;DHT22;3006;50.956;7.002;2023-02-28T07:52:13;2.20;99.90
5960;DHT22;3006;50.956;7.002;2023-02-28T07:54:41;2.30;99.90
5960;DHT22;3006;50.956;7.002;2023-02-28T07:57:09;2.30;99.90
5960;DHT22;3006;50.956;7.002;2023-02-28T07:59:37;2.40;99.90
5960;DHT22;3006;50.956;7.002;2023-02-28T08:02:06;2.50;99.90
5960;DHT22;3006;50.956;7.002;2023-02-28T08:04:34;2.60;99.90
5960;DHT22;3006;50.956;7.002;2023-02-28T08:07:04;2.60;99.90
5960;DHT22;3006;50.956;7.002;2023-02-28T08:09:32;2.60;99.90
5960;DHT22;3006;50.956;7.002;2023-02-28T08:12:00;2.70;99.90
5960;DHT22;3006;50.956;7.002;2023-02-28T08:14:28;2.80;99.90
5960;DHT22;3006;50.956;7.002;2023-02-28T08:16:56;2.90;99.90
5960;DHT22;3006;50.956;7.002;2023-02-28T08:19:25;3.00;99.90
5960;DHT22;3006;50.956;7.002;2023-02-28T08:21:53;3.00;99.70
5960;DHT22;3006;50.956;7.002;2023-02-28T08:24:23;3.10;99.00
5960;DHT22;3006;50.956;7.002;2023-02-28T08:26:51;3.10;98.40
5960;DHT22;3006;50.956;7.002;2023-02-28T08:29:19;3.20;97.60
5960;DHT22;3006;50.956;7.002;2023-02-28T08:31:48;3.20;97.30
5960;DHT22;3006;50.956;7.002;2023-02-28T08:34:16;3.20;96.20
5960;DHT22;3006;50.956;7.002;2023-02-28T08:36:45;3.30;96.30
5960;DHT22;3006;50.956;7.002;2023-02-28T08:39:13;3.30;96.20
5960;DHT22;3006;50.956;7.002;2023-02-28T08:41:43;3.30;95.40
5960;DHT22;3006;50.956;7.002;2023-02-28T08:44:15;3.40;95.40
5960;DHT22;3006;50.956;7.002;2023-02-28T08:46:44;3.50;95.00
5960;DHT22;3006;50.956;7.002;2023-02-28T08:49:13;3.60;94.50
5960;DHT22;3006;50.956;7.002;2023-02-28T08:51:42;3.60;94.30
5960;DHT22;3006;50.956;7.002;2023-02-28T08:54:12;3.70;94.20
5960;DHT22;3006;50.956;7.002;2023-02-28T08:56:46;3.70;93.70
5960;DHT22;3006;50.956;7.002;2023-02-28T08:59:15;3.80;92.90
5960;DHT22;3006;50.956;7.002;2023-02-28T09:01:43;3.80;92.20
5960;DHT22;3006;50.956;7.002;2023-02-28T09:04:11;3.80;92.40
5960;DHT22;3006;50.956;7.002;2023-02-28T09:06:45;3.90;92.00
5960;DHT22;3006;50.956;7.002;2023-02-28T09:09:15;3.90;91.40
5960;DHT22;3006;50.956;7.002;2023-02-28T09:11:45;3.90;91.10
5960;DHT22;3006;50.956;7.002;2023-02-28T09:14:13;4.00;91.30
5960;DHT22;3006;50.956;7.002;2023-02-28T09:16:41;4.00;90.70
5960;DHT22;3006;50.956;7.002;2023-02-28T09:19:10;4.00;90.40
5960;DHT22;3006;50.956;7.002;2023-02-28T09:21:39;4.00;90.80
5960;DHT22;3006;50.956;7.002;2023-02-28T09:24:07;4.00;89.70
5960;DHT22;3006;50.956;7.002;2023-02-28T09:26:37;4.10;89.80
5960;DHT22;3006;50.956;7.002;2023-02-28T09:29:14;4.10;89.80
5960;DHT22;3006;50.956;7.002;2023-02-28T09:31:44;4.10;90.20
5960;DHT22;3006;50.956;7.002;2023-02-28T09:34:13;4.20;88.80
5960;DHT22;3006;50.956;7.002;2023-02-28T09:36:41;4.30;89.10
5960;DHT22;3006;50.956;7.002;2023-02-28T09:39:13;4.40;88.00
5960;DHT22;3006;50.956;7.002;2023-02-28T09:41:44;4.40;87.50
5960;DHT22;3006;50.956;7.002;2023-02-28T09:44:24;4.40;87.20
5960;DHT22;3006;50.956;7.002;2023-02-28T09:46:58;4.30;87.10
5960;DHT22;3006;50.956;7.002;2023-02-28T09:49:34;4.30;87.80
5960;DHT22;3006;50.956;7.002;2023-02-28T09:52:07;4.30;87.40
5960;DHT22;3006;50.956;7.002;2023-02-28T09:54:37;4.30;87.20
5960;DHT22;3006;50.956;7.002;2023-02-28T09:57:11;4.40;86.70
5960;DHT22;3006;50.956;7.002;2023-02-28T09:59:52;4.40;86.80
5960;DHT22;3006;50.956;7.002;2023-02-28T10:02:46;4.50;87.00
5960;DHT22;3006;50.956;7.002;2023-02-28T10:05:19;4.40;85.80
5960;DHT22;3006;50.956;7.002;2023-02-28T10:07:56;4.50;86.10
5960;DHT22;3006;50.956;7.002;2023-02-28T10:10:32;4.50;85.10
5960;DHT22;3006;50.956;7.002;2023-02-28T10:13:04;4.50;84.80
5960;DHT22;3006;50.956;7.002;2023-02-28T10:15:38;4.40;85.30
5960;DHT22;3006;50.956;7.002;2023-02-28T10:18:12;4.50;85.40
5960;DHT22;3006;50.956;7.002;2023-02-28T10:20:46;4.60;84.80
5960;DHT22;3006;50.956;7.002;2023-02-28T10:23:19;4.50;84.50
5960;DHT22;3006;50.956;7.002;2023-02-28T10:25:53;4.50;84.70
5960;DHT22;3006;50.956;7.002;2023-02-28T10:28:22;4.60;84.70
5960;DHT22;3006;50.956;7.002;2023-02-28T10:30:54;4.70;84.60
5960;DHT22;3006;50.956;7.002;2023-02-28T10:33:24;4.70;84.30
5960;DHT22;3006;50.956;7.002;2023-02-28T10:35:54;4.70;84.80
5960;DHT22;3006;50.956;7.002;2023-02-28T10:38:24;4.70;83.90
5960;DHT22;3006;50.956;7.002;2023-02-28T10:41:04;4.70;83.80
5960;DHT22;3006;50.956;7.002;2023-02-28T10:43:36;4.70;83.90
5960;DHT22;3006;50.956;7.002;2023-02-28T10:46:13;4.70;83.80
5960;DHT22;3006;50.956;7.002;2023-02-28T10:49:02;4.70;84.80
5960;DHT22;3006;50.956;7.002;2023-02-28T10:51:36;4.80;85.10
5960;DHT22;3006;50.956;7.002;2023-02-28T10:54:05;4.90;84.30
5960;DHT22;3006;50.956;7.002;2023-02-28T10:56:42;4.80;83.80
5960;DHT22;3006;50.956;7.002;2023-02-28T10:59:27;4.80;84.00
5960;DHT22;3006;50.956;7.002;2023-02-28T11:01:58;4.90;83.70
5960;DHT22;3006;50.956;7.002;2023-02-28T11:04:35;4.90;83.40
5960;DHT22;3006;50.956;7.002;2023-02-28T11:07:18;5.00;84.20
5960;DHT22;3006;50.956;7.002;2023-02-28T11:09:51;5.10;83.10
5960;DHT22;3006;50.956;7.002;2023-02-28T11:12:23;5.10;81.70
5960;DHT22;3006;50.956;7.002;2023-02-28T11:14:57;5.20;82.00
5960;DHT22;3006;50.956;7.002;2023-02-28T11:17:32;5.20;82.90
5960;DHT22;3006;50.956;7.002;2023-02-28T11:20:07;5.20;83.20
5960;DHT22;3006;50.956;7.002;2023-02-28T11:22:44;5.20;83.90
5960;DHT22;3006;50.956;7.002;2023-02-28T11:25:20;5.40;84.30
5960;DHT22;3006;50.956;7.002;2023-02-28T11:27:50;5.50;84.00
5960;DHT22;3006;50.956;7.002;2023-02-28T11:30:28;5.50;83.80
5960;DHT22;3006;50.956;7.002;2023-02-28T11:32:57;5.60;83.10
5960;DHT22;3006;50.956;7.002;2023-02-28T11:35:30;5.70;83.50
5960;DHT22;3006;50.956;7.002;2023-02-28T11:38:01;5.70;83.10
5960;DHT22;3006;50.956;7.002;2023-02-28T11:40:36;5.60;83.30
5960;DHT22;3006;50.956;7.002;2023-02-28T11:43:18;5.60;84.40
5960;DHT22;3006;50.956;7.002;2023-02-28T11:46:03;5.60;83.90
5960;DHT22;3006;50.956;7.002;2023-02-28T11:48:41;5.70;83.80
5960;DHT22;3006;50.956;7.002;2023-02-28T11:51:18;5.80;83.50
5960;DHT22;3006;50.956;7.002;2023-02-28T11:56:41;5.90;83.80
5960;DHT22;3006;50.956;7.002;2023-02-28T11:59:26;5.90;82.40
5960;DHT22;3006;50.956;7.002;2023-02-28T12:05:23;5.80;82.60
5960;DHT22;3006;50.956;7.002;2023-02-28T12:08:01;5.90;81.50
5960;DHT22;3006;50.956;7.002;2023-02-28T12:10:36;6.00;81.40
5960;DHT22;3006;50.956;7.002;2023-02-28T12:13:15;6.20;80.50
5960;DHT22;3006;50.956;7.002;2023-02-28T12:19:17;6.20;79.80
5960;DHT22;3006;50.956;7.002;2023-02-28T12:22:12;6.00;79.30
5960;DHT22;3006;50.956;7.002;2023-02-28T12:27:56;6.00;78.70
5960;DHT22;3006;50.956;7.002;2023-02-28T12:30:27;6.00;79.20
5960;DHT22;3006;50.956;7.002;2023-02-28T12:33:04;6.10;79.80
5960;DHT22;3006;50.956;7.002;2023-02-28T12:35:37;6.20;79.40
5960;DHT22;3006;50.956;7.002;2023-02-28T12:38:12;6.20;79.40
5960;DHT22;3006;50.956;7.002;2023-02-28T12:40:49;6.10;79.20
5960;DHT22;3006;50.956;7.002;2023-02-28T12:43:20;6.20;78.70
5960;DHT22;3006;50.956;7.002;2023-02-28T12:45:53;6.40;79.10
5960;DHT22;3006;50.956;7.002;2023-02-28T12:48:27;6.50;79.10
5960;DHT22;3006;50.956;7.002;2023-02-28T12:50:57;6.60;79.00
5960;DHT22;3006;50.956;7.002;2023-02-28T12:53:38;6.80;78.10
5960;DHT22;3006;50.956;7.002;2023-02-28T12:56:16;7.00;78.30
5960;DHT22;3006;50.956;7.002;2023-02-28T12:58:51;7.10;78.30
5960;DHT22;3006;50.956;7.002;2023-02-28T13:01:54;7.20;77.70
5960;DHT22;3006;50.956;7.002;2023-02-28T13:04:45;7.10;76.80
5960;DHT22;3006;50.956;7.002;2023-02-28T13:07:45;7.10;76.80
5960;DHT22;3006;50.956;7.002;2023-02-28T13:10:22;7.20;77.10
5960;DHT22;3006;50.956;7.002;2023-02-28T13:12:53;7.30;76.70
5960;DHT22;3006;50.956;7.002;2023-02-28T13:15:26;7.30;76.40
5960;DHT22;3006;50.956;7.002;2023-02-28T13:17:57;7.40;76.90
5960;DHT22;3006;50.956;7.002;2023-02-28T13:20:29;7.50;77.60
5960;DHT22;3006;50.956;7.002;2023-02-28T13:26:14;8.00;74.20
5960;DHT22;3006;50.956;7.002;2023-02-28T13:29:27;7.70;72.00
5960;DHT22;3006;50.956;7.002;2023-02-28T13:32:19;7.60;73.10
5960;DHT22;3006;50.956;7.002;2023-02-28T13:35:13;7.80;72.70
5960;DHT22;3006;50.956;7.002;2023-02-28T13:37:43;8.00;72.20
5960;DHT22;3006;50.956;7.002;2023-02-28T13:40:32;8.20;71.80
5960;DHT22;3006;50.956;7.002;2023-02-28T13:43:09;8.10;70.50
5960;DHT22;3006;50.956;7.002;2023-02-28T13:45:37;8.20;70.70
5960;DHT22;3006;50.956;7.002;2023-02-28T13:48:16;8.30;70.50
5960;DHT22;3006;50.956;7.002;2023-02-28T13:50:46;8.50;70.90
5960;DHT22;3006;50.956;7.002;2023-02-28T13:56:27;8.70;70.80
5960;DHT22;3006;50.956;7.002;2023-02-28T13:59:06;9.00;69.80
5960;DHT22;3006;50.956;7.002;2023-02-28T14:01:49;9.50;69.40
5960;DHT22;3006;50.956;7.002;2023-02-28T14:04:56;10.20;67.50
5960;DHT22;3006;50.956;7.002;2023-02-28T14:07:31;10.60;65.20
5960;DHT22;3006;50.956;7.002;2023-02-28T14:10:04;10.90;63.70
5960;DHT22;3006;50.956;7.002;2023-02-28T14:12:58;11.20;62.20
5960;DHT22;3006;50.956;7.002;2023-02-28T14:15:41;11.60;61.40
5960;DHT22;3006;50.956;7.002;2023-02-28T14:18:23;11.90;59.70
5960;DHT22;3006;50.956;7.002;2023-02-28T14:20:57;12.30;59.10
5960;DHT22;3006;50.956;7.002;2023-02-28T14:23:40;13.00;57.70
5960;DHT22;3006;50.956;7.002;2023-02-28T14:26:18;14.20;57.60
5960;DHT22;3006;50.956;7.002;2023-02-28T14:29:05;15.80;54.10
5960;DHT22;3006;50.956;7.002;2023-02-28T14:31:46;15.60;50.30
5960;DHT22;3006;50.956;7.002;2023-02-28T14:34:35;15.40;49.60
5960;DHT22;3006;50.956;7.002;2023-02-28T14:37:05;14.70;49.90
5960;DHT22;3006;50.956;7.002;2023-02-28T14:39:34;14.00;50.50
5960;DHT22;3006;50.956;7.002;2023-02-28T14:42:24;14.40;50.90
5960;DHT22;3006;50.956;7.002;2023-02-28T14:44:54;15.00;49.80
5960;DHT22;3006;50.956;7.002;2023-02-28T14:47:28;15.20;48.30
5960;DHT22;3006;50.956;7.002;2023-02-28T14:49:57;14.00;48.90
5960;DHT22;3006;50.956;7.002;2023-02-28T14:52:27;12.40;51.20
5960;DHT22;3006;50.956;7.002;2023-02-28T14:54:58;11.30;53.00
5960;DHT22;3006;50.956;7.002;2023-02-28T14:57:28;10.30;54.10
5960;DHT22;3006;50.956;7.002;2023-02-28T15:00:01;9.60;56.30
5960;DHT22;3006;50.956;7.002;2023-02-28T15:02:39;9.10;56.70
5960;DHT22;3006;50.956;7.002;2023-02-28T15:05:22;8.70;57.80
5960;DHT22;3006;50.956;7.002;2023-02-28T15:08:02;8.50;58.80
5960;DHT22;3006;50.956;7.002;2023-02-28T15:10:33;8.30;59.20
5960;DHT22;3006;50.956;7.002;2023-02-28T15:13:05;8.20;59.70
5960;DHT22;3006;50.956;7.002;2023-02-28T15:15:44;8.20;60.30
5960;DHT22;3006;50.956;7.002;2023-02-28T15:18:33;8.10;60.30
5960;DHT22;3006;50.956;7.002;2023-02-28T15:21:07;8.00;61.00
5960;DHT22;3006;50.956;7.002;2023-02-28T15:23:36;7.90;61.40
5960;DHT22;3006;50.956;7.002;2023-02-28T15:26:06;7.80;61.60
5960;DHT22;3006;50.956;7.002;2023-02-28T15:28:34;7.80;62.00
5960;DHT22;3006;50.956;7.002;2023-02-28T15:31:03;7.70;62.40
5960;DHT22;3006;50.956;7.002;2023-02-28T15:33:54;7.70;62.80
5960;DHT22;3006;50.956;7.002;2023-02-28T15:36:25;7.70;62.70
5960;DHT22;3006;50.956;7.002;2023-02-28T15:38:55;7.60;63.40
5960;DHT22;3006;50.956;7.002;2023-02-28T15:41:37;7.70;63.70
5960;DHT22;3006;50.956;7.002;2023-02-28T15:44:17;7.70;63.70
5960;DHT22;3006;50.956;7.002;2023-02-28T15:46:55;7.70;64.50
5960;DHT22;3006;50.956;7.002;2023-02-28T15:49:26;7.60;64.10
5960;DHT22;3006;50.956;7.002;2023-02-28T15:51:56;7.60;64.40
5960;DHT22;3006;50.956;7.002;2023-02-28T15:54:29;7.50;64.70
5960;DHT22;3006;50.956;7.002;2023-02-28T15:57:04;7.50;64.80
5960;DHT22;3006;50.956;7.002;2023-02-28T15:59:33;7.50;65.00
5960;DHT22;3006;50.956;7.002;2023-02-28T16:02:14;7.40;65.90
5960;DHT22;3006;50.956;7.002;2023-02-28T16:05:22;7.40;66.20
5960;DHT22;3006;50.956;7.002;2023-02-28T16:07:55;7.30;66.30
5960;DHT22;3006;50.956;7.002;2023-02-28T16:10:25;7.30;66.80
5960;DHT22;3006;50.956;7.002;2023-02-28T16:12:54;7.30;66.40
5960;DHT22;3006;50.956;7.002;2023-02-28T16:15:24;7.30;66.50
5960;DHT22;3006;50.956;7.002;2023-02-28T16:17:54;7.30;67.00
5960;DHT22;3006;50.956;7.002;2023-02-28T16:20:26;7.40;67.10
5960;DHT22;3006;50.956;7.002;2023-02-28T16:22:55;7.40;66.60
5960;DHT22;3006;50.956;7.002;2023-02-28T16:25:28;7.40;66.70
5960;DHT22;3006;50.956;7.002;2023-02-28T16:27:57;7.30;67.00
5960;DHT22;3006;50.956;7.002;2023-02-28T16:30:28;7.30;66.90
5960;DHT22;3006;50.956;7.002;2023-02-28T16:32:58;7.20;67.20
5960;DHT22;3006;50.956;7.002;2023-02-28T16:35:28;7.20;67.70
5960;DHT22;3006;50.956;7.002;2023-02-28T16:37:56;7.20;68.10
5960;DHT22;3006;50.956;7.002;2023-02-28T16:40:25;7.20;68.30
5960;DHT22;3006;50.956;7.002;2023-02-28T16:42:58;7.20;68.60
5960;DHT22;3006;50.956;7.002;2023-02-28T16:45:28;7.20;68.70
5960;DHT22;3006;50.956;7.002;2023-02-28T16:47:57;7.10;68.10
5960;DHT22;3006;50.956;7.002;2023-02-28T16:50:28;7.10;68.70
5960;DHT22;3006;50.956;7.002;2023-02-28T16:52:56;7.10;69.10
5960;DHT22;3006;50.956;7.002;2023-02-28T16:55:26;7.00;69.10
5960;DHT22;3006;50.956;7.002;2023-02-28T16:57:56;7.00;69.00
5960;DHT22;3006;50.956;7.002;2023-02-28T17:00:27;7.00;69.70
5960;DHT22;3006;50.956;7.002;2023-02-28T17:02:55;7.00;70.00
5960;DHT22;3006;50.956;7.002;2023-02-28T17:05:24;6.90;69.80
5960;DHT22;3006;50.956;7.002;2023-02-28T17:07:55;6.90;70.00
5960;DHT22;3006;50.956;7.002;2023-02-28T17:10:25;6.90;70.30
5960;DHT22;3006;50.956;7.002;2023-02-28T17:12:54;6.80;70.50
5960;DHT22;3006;50.956;7.002;2023-02-28T17:15:35;6.80;70.90
5960;DHT22;3006;50.956;7.002;2023-02-28T17:18:04;6.80;71.50
5960;DHT22;3006;50.956;7.002;2023-02-28T17:20:32;6.70;71.40